createdAt,value
2018-07-25T00:00:59.348Z,26.80
2018-07-25T00:03:28.076Z,25.07
2018-07-25T00:05:56.944Z,27.97
2018-07-25T00:08:26.435Z,24.90
2018-07-25T00:10:55.952Z,24.63
2018-07-25T00:13:26.175Z,24.03
2018-07-25T00:15:55.488Z,27.07
2018-07-25T00:18:24.150Z,28.30
2018-07-25T00:20:53.981Z,25.23
2018-07-25T00:23:22.859Z,22.53
2018-07-25T00:25:51.978Z,23.57
2018-07-25T00:28:20.827Z,25.53
2018-07-25T00:30:49.874Z,23.40
2018-07-25T00:33:18.648Z,31.73
2018-07-25T00:35:47.387Z,32.27
2018-07-25T00:38:15.993Z,25.10
2018-07-25T00:40:44.666Z,25.77
2018-07-25T00:43:13.344Z,24.97
2018-07-25T00:45:42.168Z,25.40
2018-07-25T00:48:10.865Z,26.77
2018-07-25T00:50:39.465Z,28.67
2018-07-25T00:53:08.318Z,25.63
2018-07-25T00:55:37.043Z,36.43
2018-07-25T00:58:05.710Z,38.73
2018-07-25T01:00:34.510Z,28.13
2018-07-25T01:03:03.053Z,26.47
2018-07-25T01:05:33.315Z,24.57
2018-07-25T01:08:02.915Z,25.13
2018-07-25T01:10:31.701Z,27.23
2018-07-25T01:13:00.364Z,25.20
2018-07-25T01:15:29.463Z,27.43
2018-07-25T01:17:58.253Z,28.90
2018-07-25T01:20:26.895Z,26.60
2018-07-25T01:22:56.120Z,27.70
2018-07-25T01:25:24.900Z,31.00
2018-07-25T01:27:53.579Z,27.67
2018-07-25T01:30:23.143Z,29.50
2018-07-25T01:32:51.819Z,27.43
2018-07-25T01:35:21.302Z,30.87
2018-07-25T01:37:50.106Z,27.57
2018-07-25T01:40:18.738Z,32.03
2018-07-25T01:42:47.544Z,28.37
2018-07-25T01:45:16.436Z,29.60
2018-07-25T01:47:45.172Z,33.23
2018-07-25T01:50:13.802Z,32.53
2018-07-25T01:52:42.563Z,30.87
2018-07-25T01:55:13.029Z,41.33
2018-07-25T01:57:41.809Z,34.73
2018-07-25T02:00:10.543Z,28.40
2018-07-25T02:02:39.193Z,26.40
2018-07-25T02:05:08.096Z,28.00
2018-07-25T02:07:41.703Z,32.07
2018-07-25T02:10:10.912Z,28.77
2018-07-25T02:12:39.567Z,27.07
2018-07-25T02:15:08.651Z,30.90
2018-07-25T02:17:38.588Z,29.17
2018-07-25T02:20:07.248Z,30.27
2018-07-25T02:22:35.925Z,29.97
2018-07-25T02:25:04.851Z,35.00
2018-07-25T02:27:33.490Z,31.23
2018-07-25T02:30:02.105Z,31.60
2018-07-25T02:32:31.087Z,38.50
2018-07-25T02:34:59.881Z,29.43
2018-07-25T02:37:28.706Z,30.17
2018-07-25T02:39:57.579Z,33.50
2018-07-25T02:42:27.538Z,28.27
2018-07-25T02:44:56.300Z,30.50
2018-07-25T02:47:25.384Z,30.20
2018-07-25T02:49:54.015Z,31.03
2018-07-25T02:52:22.681Z,35.43
2018-07-25T02:54:51.548Z,30.60
2018-07-25T02:57:20.158Z,29.43
2018-07-25T02:59:48.767Z,27.93
2018-07-25T03:02:18.021Z,31.37
2018-07-25T03:04:46.635Z,29.50
2018-07-25T03:07:15.223Z,26.70
2018-07-25T03:09:44.574Z,34.43
2018-07-25T03:12:13.691Z,34.10
2018-07-25T03:14:42.264Z,30.60
2018-07-25T03:17:11.016Z,41.67
2018-07-25T03:19:39.686Z,32.47
2018-07-25T03:22:08.235Z,31.43
2018-07-25T03:24:37.308Z,46.30
2018-07-25T03:27:05.959Z,27.20
2018-07-25T03:29:34.528Z,27.63
2018-07-25T03:32:04.115Z,34.60
2018-07-25T03:34:32.812Z,33.93
2018-07-25T03:37:01.569Z,32.20
2018-07-25T03:39:30.851Z,35.77
2018-07-25T03:42:03.519Z,30.73
2018-07-25T03:44:32.228Z,30.23
2018-07-25T03:47:01.228Z,45.20
2018-07-25T03:49:29.896Z,32.20
2018-07-25T03:51:59.139Z,29.13
2018-07-25T03:54:28.767Z,27.70
2018-07-25T03:56:57.342Z,30.60
2018-07-25T03:59:26.201Z,29.93
2018-07-25T04:01:55.910Z,28.60
2018-07-25T04:04:24.690Z,29.10
2018-07-25T04:06:53.387Z,31.03
2018-07-25T04:09:22.099Z,33.73
2018-07-25T04:11:51.144Z,35.83
2018-07-25T04:14:19.806Z,27.07
2018-07-25T04:16:48.564Z,41.03
2018-07-25T04:19:18.324Z,28.17
2018-07-25T04:21:47.175Z,29.17
2018-07-25T04:24:16.068Z,27.93
2018-07-25T04:26:44.707Z,33.47
2018-07-25T04:29:14.195Z,28.53
2018-07-25T04:31:42.908Z,30.03
2018-07-25T04:34:11.772Z,25.83
2018-07-25T04:36:40.509Z,31.07
2018-07-25T04:39:11.616Z,41.50
2018-07-25T04:41:40.903Z,31.53
2018-07-25T04:44:10.492Z,30.00
2018-07-25T04:46:39.270Z,40.87
2018-07-25T04:49:07.979Z,40.10
2018-07-25T04:51:37.140Z,30.43
2018-07-25T04:54:05.748Z,45.63
2018-07-25T04:56:34.837Z,35.20
2018-07-25T04:59:03.611Z,33.93
2018-07-25T05:01:32.596Z,30.17
2018-07-25T05:04:01.456Z,32.43
2018-07-25T05:06:30.110Z,29.10
2018-07-25T05:08:58.887Z,27.97
2018-07-25T05:11:27.823Z,33.17
2018-07-25T05:13:56.433Z,35.07
2018-07-25T05:16:25.439Z,29.13
2018-07-25T05:18:54.045Z,31.97
2018-07-25T05:21:22.604Z,36.50
2018-07-25T05:23:51.383Z,32.20
2018-07-25T05:26:20.211Z,30.80
2018-07-25T05:28:48.872Z,33.90
2018-07-25T05:31:17.700Z,32.40
2018-07-25T05:33:46.580Z,35.60
2018-07-25T05:36:15.345Z,25.77
2018-07-25T05:38:44.068Z,30.93
2018-07-25T05:41:13.297Z,27.70
2018-07-25T05:43:41.905Z,32.17
2018-07-25T05:46:10.690Z,27.87
2018-07-25T05:48:39.295Z,34.03
2018-07-25T05:51:08.012Z,29.67
2018-07-25T05:53:36.696Z,32.23
2018-07-25T05:56:06.467Z,30.20
2018-07-25T05:58:35.147Z,27.47
2018-07-25T06:01:03.976Z,28.30
2018-07-25T06:03:32.681Z,26.17
2018-07-25T06:06:01.389Z,23.17
2018-07-25T06:08:30.148Z,21.50
2018-07-25T06:11:00.277Z,23.40
2018-07-25T06:13:28.951Z,26.67
2018-07-25T06:15:58.660Z,25.80
2018-07-25T06:18:28.924Z,27.83
2018-07-25T06:20:58.211Z,26.87
2018-07-25T06:23:27.278Z,30.40
2018-07-25T06:25:56.991Z,31.33
2018-07-25T06:28:25.739Z,24.80
2018-07-25T06:30:54.563Z,29.43
2018-07-25T06:33:23.953Z,32.03
2018-07-25T06:35:53.163Z,35.63
2018-07-25T06:38:23.381Z,24.00
2018-07-25T06:40:52.550Z,21.00
2018-07-25T06:43:23.130Z,23.03
2018-07-25T06:45:52.636Z,41.93
2018-07-25T06:48:22.184Z,23.87
2018-07-25T06:50:51.827Z,20.53
2018-07-25T06:53:22.545Z,22.50
2018-07-25T06:55:52.712Z,23.53
2018-07-25T06:58:21.931Z,21.23
2018-07-25T07:00:51.034Z,20.23
2018-07-25T07:03:20.604Z,24.17
2018-07-25T07:05:50.084Z,22.27
2018-07-25T07:08:19.700Z,38.63
2018-07-25T07:10:49.590Z,23.77
2018-07-25T07:13:19.626Z,23.03
2018-07-25T07:15:48.829Z,23.93
2018-07-25T07:18:18.125Z,30.57
2018-07-25T07:20:47.572Z,20.47
2018-07-25T07:23:16.284Z,17.87
2018-07-25T07:25:45.010Z,15.53
2018-07-25T07:28:13.996Z,26.83
2018-07-25T07:30:42.944Z,19.40
2018-07-25T07:33:11.647Z,19.80
2018-07-25T07:35:40.336Z,17.00
2018-07-25T07:38:09.236Z,14.83
2018-07-25T07:40:38.116Z,13.37
2018-07-25T07:43:06.760Z,17.43
2018-07-25T07:45:35.485Z,17.60
2018-07-25T07:48:04.196Z,13.87
2018-07-25T07:50:32.948Z,16.30
2018-07-25T07:53:02.068Z,13.80
2018-07-25T07:55:30.767Z,13.43
2018-07-25T07:57:59.684Z,15.53
2018-07-25T08:00:28.483Z,11.10
2018-07-25T08:02:57.137Z,14.20
2018-07-25T08:05:25.752Z,17.40
2018-07-25T08:07:54.488Z,10.67
2018-07-25T08:10:23.127Z,9.97
2018-07-25T08:12:52.321Z,8.83
2018-07-25T08:15:21.367Z,10.60
2018-07-25T08:17:50.035Z,9.43
2018-07-25T08:20:18.717Z,13.27
2018-07-25T08:22:47.973Z,7.10
2018-07-25T08:25:16.807Z,7.93
2018-07-25T08:27:45.360Z,8.00
2018-07-25T08:30:14.352Z,8.87
2018-07-25T08:32:42.931Z,9.20
2018-07-25T08:35:11.783Z,10.10
2018-07-25T08:37:40.695Z,6.60
2018-07-25T08:40:09.308Z,12.10
2018-07-25T08:42:38.103Z,7.57
2018-07-25T08:45:07.959Z,10.30
2018-07-25T08:47:36.589Z,6.83
2018-07-25T08:50:08.114Z,6.87
2018-07-25T08:52:37.173Z,6.37
2018-07-25T08:55:06.255Z,12.13
2018-07-25T08:57:35.145Z,7.73
2018-07-25T09:00:04.166Z,7.70
2018-07-25T09:02:33.177Z,7.80
2018-07-25T09:05:02.052Z,9.10
2018-07-25T09:07:31.252Z,6.50
2018-07-25T09:10:01.409Z,6.30
2018-07-25T09:12:30.079Z,6.03
2018-07-25T09:14:58.707Z,5.70
2018-07-25T09:17:27.413Z,6.50
2018-07-25T09:19:56.152Z,9.50
2018-07-25T09:22:24.747Z,6.53
2018-07-25T09:24:53.579Z,6.97
2018-07-25T09:27:22.211Z,6.33
2018-07-25T09:29:51.169Z,6.53
2018-07-25T09:32:20.127Z,6.10
2018-07-25T09:34:48.784Z,5.57
2018-07-25T09:37:17.349Z,7.60
2018-07-25T09:39:46.204Z,6.90
2018-07-25T09:42:14.974Z,9.87
2018-07-25T09:44:43.896Z,7.00
2018-07-25T09:47:12.800Z,7.33
2018-07-25T09:49:41.894Z,6.87
2018-07-25T09:52:10.615Z,9.97
2018-07-25T09:54:39.324Z,7.12
2018-07-25T09:57:08.095Z,6.42
2018-07-25T09:59:36.903Z,10.85
2018-07-25T10:02:05.604Z,7.15
2018-07-25T10:04:34.304Z,6.85
2018-07-25T10:07:03.112Z,6.47
2018-07-25T10:09:31.865Z,9.90
2018-07-25T10:12:00.512Z,7.17
2018-07-25T10:14:29.100Z,11.97
2018-07-25T10:16:57.882Z,8.95
2018-07-25T10:19:26.469Z,10.28
2018-07-25T10:21:55.106Z,12.33
2018-07-25T10:24:23.897Z,7.40
2018-07-25T10:26:52.586Z,8.75
2018-07-25T10:29:21.338Z,7.05
2018-07-25T10:31:50.447Z,7.47
2018-07-25T10:34:19.080Z,6.97
2018-07-25T10:36:47.636Z,10.50
2018-07-25T10:39:16.438Z,8.30
2018-07-25T10:41:45.045Z,7.83
2018-07-25T10:44:13.975Z,7.20
2018-07-25T10:46:43.512Z,10.53
2018-07-25T10:49:12.120Z,7.50
2018-07-25T10:51:40.812Z,10.32
2018-07-25T10:54:09.555Z,6.90
2018-07-25T10:56:38.412Z,6.50
2018-07-25T10:59:07.187Z,10.08
2018-07-25T11:01:36.250Z,8.30
2018-07-25T11:04:05.162Z,5.40
2018-07-25T11:06:34.064Z,6.40
2018-07-25T11:09:03.091Z,6.05
2018-07-25T11:11:31.727Z,9.73
2018-07-25T11:14:01.178Z,5.35
2018-07-25T11:16:30.183Z,5.25
2018-07-25T11:18:59.013Z,5.85
2018-07-25T11:21:27.662Z,5.10
2018-07-25T11:23:56.543Z,12.13
2018-07-25T11:26:25.231Z,5.28
2018-07-25T11:28:53.896Z,3.90
2018-07-25T11:31:22.884Z,5.47
2018-07-25T11:33:51.545Z,7.37
2018-07-25T11:36:20.222Z,4.47
2018-07-25T11:38:49.169Z,4.40
2018-07-25T11:41:17.980Z,6.78
2018-07-25T11:43:46.604Z,3.85
2018-07-25T11:46:15.425Z,6.67
2018-07-25T11:48:44.064Z,5.45
2018-07-25T11:51:12.818Z,4.55
2018-07-25T11:53:41.473Z,3.83
2018-07-25T11:56:10.373Z,3.47
2018-07-25T11:58:39.025Z,4.12
2018-07-25T12:01:08.073Z,4.20
2018-07-25T12:03:36.754Z,5.40
2018-07-25T12:06:05.337Z,3.40
2018-07-25T12:08:34.147Z,3.77
2018-07-25T12:11:02.752Z,4.00
2018-07-25T12:13:31.336Z,4.67
2018-07-25T12:16:00.283Z,3.30
2018-07-25T12:18:28.958Z,3.60
2018-07-25T12:20:57.596Z,3.77
2018-07-25T12:23:26.367Z,3.75
2018-07-25T12:25:55.068Z,3.65
2018-07-25T12:28:23.650Z,4.15
2018-07-25T12:30:53.507Z,5.95
2018-07-25T12:33:22.092Z,5.12
2018-07-25T12:35:50.900Z,3.45
2018-07-25T12:38:20.320Z,5.37
2018-07-25T12:40:49.030Z,5.00
2018-07-25T12:43:17.744Z,6.22
2018-07-25T12:45:46.648Z,3.33
2018-07-25T12:48:15.303Z,2.90
2018-07-25T12:50:43.897Z,3.60
2018-07-25T12:53:12.853Z,3.30
2018-07-25T12:55:41.555Z,3.70
2018-07-25T12:58:10.305Z,4.10
2018-07-25T13:00:39.093Z,4.33
2018-07-25T13:03:08.336Z,4.50
2018-07-25T13:05:37.144Z,3.10
2018-07-25T13:08:06.467Z,17.57
2018-07-25T13:10:35.483Z,3.33
2018-07-25T13:13:04.108Z,3.70
2018-07-25T13:15:32.687Z,6.05
2018-07-25T13:18:01.380Z,3.75
2018-07-25T13:20:30.048Z,4.65
2018-07-25T13:22:58.886Z,6.25
2018-07-25T13:25:27.523Z,3.67
2018-07-25T13:27:56.116Z,9.53
2018-07-25T13:30:24.835Z,4.17
2018-07-25T13:32:53.510Z,4.78
2018-07-25T13:35:22.188Z,4.60
2018-07-25T13:37:51.017Z,3.12
2018-07-25T13:40:19.735Z,3.77
2018-07-25T13:42:48.471Z,3.22
2018-07-25T13:45:17.645Z,3.40
2018-07-25T13:47:46.309Z,3.25
2018-07-25T13:50:15.161Z,3.58
2018-07-25T13:52:44.339Z,3.67
2018-07-25T13:55:13.053Z,3.08
2018-07-25T13:57:41.730Z,3.30
2018-07-25T14:00:12.133Z,3.58
2018-07-25T14:02:40.908Z,4.05
2018-07-25T14:05:09.988Z,3.50
2018-07-25T14:07:38.925Z,10.48
2018-07-25T14:10:07.589Z,4.22
2018-07-25T14:12:36.375Z,4.60
2018-07-25T14:15:05.350Z,3.87
2018-07-25T14:17:34.079Z,3.95
2018-07-25T14:20:02.917Z,6.15
2018-07-25T14:22:31.952Z,4.95
2018-07-25T14:25:00.800Z,4.72
2018-07-25T14:27:29.472Z,4.33
2018-07-25T14:29:58.632Z,15.03
2018-07-25T14:32:27.308Z,4.92
2018-07-25T14:34:55.956Z,4.33
2018-07-25T14:37:24.734Z,5.25
2018-07-25T14:39:53.474Z,5.67
2018-07-25T14:42:22.020Z,4.10
2018-07-25T14:44:50.758Z,5.42
2018-07-25T14:47:19.590Z,5.57
2018-07-25T14:49:48.159Z,8.33
2018-07-25T14:52:16.908Z,6.37
2018-07-25T14:54:45.439Z,7.70
2018-07-25T14:57:14.285Z,13.00
2018-07-25T14:59:43.060Z,10.53
2018-07-25T15:02:11.819Z,7.10
2018-07-25T15:04:40.689Z,10.40
2018-07-25T15:07:09.408Z,11.03
2018-07-25T15:09:38.076Z,7.60
2018-07-25T15:12:07.055Z,8.53
2018-07-25T15:14:35.796Z,9.10
2018-07-25T15:17:04.471Z,7.33
2018-07-25T15:19:33.211Z,11.57
2018-07-25T15:22:01.973Z,7.13
2018-07-25T15:24:30.657Z,14.17
2018-07-25T15:27:00.188Z,10.90
2018-07-25T15:29:29.260Z,7.33
2018-07-25T15:31:58.257Z,7.50
2018-07-25T15:34:27.123Z,8.73
2018-07-25T15:36:56.109Z,11.83
2018-07-25T15:39:25.898Z,9.00
2018-07-25T15:41:56.100Z,10.83
2018-07-25T15:44:25.986Z,7.67
2018-07-25T15:46:55.018Z,8.00
2018-07-25T15:49:25.437Z,6.90
2018-07-25T15:51:54.121Z,7.13
2018-07-25T15:54:22.963Z,7.53
2018-07-25T15:56:52.160Z,7.40
2018-07-25T15:59:20.951Z,9.50
2018-07-25T16:01:51.414Z,7.60
2018-07-25T16:04:20.174Z,6.53
2018-07-25T16:06:48.920Z,9.87
2018-07-25T16:09:18.047Z,10.70
2018-07-25T16:11:48.451Z,10.90
2018-07-25T16:14:17.356Z,7.47
2018-07-25T16:16:46.288Z,11.83
2018-07-25T16:19:15.043Z,11.23
2018-07-25T16:21:44.049Z,6.93
2018-07-25T16:24:13.118Z,8.60
2018-07-25T16:26:41.927Z,11.03
2018-07-25T16:29:10.821Z,7.00
2018-07-25T16:31:39.570Z,11.80
2018-07-25T16:34:08.268Z,11.90
2018-07-25T16:36:37.040Z,9.40
2018-07-25T16:39:09.180Z,7.30
2018-07-25T16:41:38.419Z,6.87
2018-07-25T16:44:07.217Z,10.23
2018-07-25T16:46:36.012Z,11.43
2018-07-25T16:49:05.204Z,6.33
2018-07-25T16:51:34.236Z,6.80
2018-07-25T16:54:03.589Z,6.37
2018-07-25T16:56:32.287Z,9.03
2018-07-25T16:59:01.417Z,8.70
2018-07-25T17:01:30.131Z,7.57
2018-07-25T17:04:00.100Z,7.83
2018-07-25T17:06:30.023Z,6.70
2018-07-25T17:08:59.283Z,9.27
2018-07-25T17:11:28.240Z,6.87
2018-07-25T17:13:57.249Z,9.00
2018-07-25T17:16:26.088Z,5.80
2018-07-25T17:18:54.734Z,8.67
2018-07-25T17:21:23.859Z,12.83
2018-07-25T17:23:53.131Z,11.57
2018-07-25T17:26:22.027Z,6.13
2018-07-25T17:28:50.926Z,12.20
2018-07-25T17:31:20.376Z,9.83
2018-07-25T17:33:49.112Z,8.40
2018-07-25T17:36:18.487Z,10.53
2018-07-25T17:38:47.633Z,9.27
2018-07-25T17:41:17.173Z,5.27
2018-07-25T17:43:46.172Z,7.50
2018-07-25T17:46:14.997Z,5.30
2018-07-25T17:48:43.941Z,7.17
2018-07-25T17:51:12.807Z,6.93
2018-07-25T17:53:41.809Z,5.30
2018-07-25T17:56:10.552Z,6.60
2018-07-25T17:58:39.341Z,13.47
2018-07-25T18:01:08.385Z,6.30
2018-07-25T18:03:37.144Z,14.23
2018-07-25T18:06:06.168Z,15.40
2018-07-25T18:08:35.463Z,8.73
2018-07-25T18:11:04.432Z,8.57
2018-07-25T18:13:38.466Z,10.80
2018-07-25T18:16:07.329Z,9.83
2018-07-25T18:18:36.126Z,9.40
2018-07-25T18:21:05.167Z,6.23
2018-07-25T18:23:33.988Z,6.33
2018-07-25T18:26:03.230Z,4.97
2018-07-25T18:28:32.347Z,8.53
2018-07-25T18:31:01.216Z,6.90
2018-07-25T18:33:30.481Z,8.63
2018-07-25T18:35:59.384Z,13.20
2018-07-25T18:38:28.172Z,7.87
2018-07-25T18:40:56.846Z,14.30
2018-07-25T18:43:26.685Z,8.20
2018-07-25T18:45:56.629Z,13.83
2018-07-25T18:48:26.514Z,5.73
2018-07-25T18:50:56.608Z,4.43
2018-07-25T18:53:26.599Z,6.17
2018-07-25T18:55:55.474Z,11.63
2018-07-25T18:58:24.975Z,5.33
2018-07-25T19:00:54.028Z,4.90
2018-07-25T19:03:22.909Z,6.90
2018-07-25T19:05:51.637Z,20.63
2018-07-25T19:08:20.692Z,14.73
2018-07-25T19:10:49.568Z,16.30
2018-07-25T19:13:23.599Z,32.03
2018-07-25T19:15:52.412Z,17.13
2018-07-25T19:18:21.565Z,6.73
2018-07-25T19:20:50.600Z,6.30
2018-07-25T19:23:19.373Z,10.73
2018-07-25T19:25:48.990Z,7.50
2018-07-25T19:28:19.502Z,7.57
2018-07-25T19:30:48.372Z,7.30
2018-07-25T19:33:17.163Z,12.13
2018-07-25T19:35:46.164Z,7.83
2018-07-25T19:38:15.352Z,7.97
2018-07-25T19:40:44.219Z,18.80
2018-07-25T19:43:13.278Z,13.60
2018-07-25T19:45:42.971Z,9.37
2018-07-25T19:48:11.748Z,8.03
2018-07-25T19:50:41.149Z,7.80
2018-07-25T19:53:09.795Z,7.57
2018-07-25T19:55:38.615Z,5.80
2018-07-25T19:58:07.372Z,10.43
2018-07-25T20:00:36.038Z,7.33
2018-07-25T20:03:05.102Z,8.37
2018-07-25T20:05:33.825Z,6.63
2018-07-25T20:08:03.174Z,8.10
2018-07-25T20:10:32.189Z,15.43
2018-07-25T20:13:00.912Z,6.70
2018-07-25T20:15:35.323Z,9.23
2018-07-25T20:18:04.539Z,11.50
2018-07-25T20:20:33.485Z,9.77
2018-07-25T20:23:02.259Z,13.20
2018-07-25T20:25:31.297Z,8.10
2018-07-25T20:27:59.918Z,16.50
2018-07-25T20:30:28.716Z,13.97
2018-07-25T20:32:57.881Z,12.50
2018-07-25T20:35:26.591Z,11.50
2018-07-25T20:37:55.770Z,9.47
2018-07-25T20:40:24.806Z,13.13
2018-07-25T20:42:53.659Z,5.73
2018-07-25T20:45:22.555Z,7.67
2018-07-25T20:47:51.616Z,18.63
2018-07-25T20:50:20.481Z,11.20
2018-07-25T20:52:49.801Z,9.53
2018-07-25T20:55:18.585Z,14.53
2018-07-25T20:57:47.367Z,8.07
2018-07-25T21:00:16.480Z,8.20
2018-07-25T21:02:45.349Z,9.60
2018-07-25T21:05:14.075Z,12.50
2018-07-25T21:07:42.895Z,8.67
2018-07-25T21:10:11.827Z,8.90
2018-07-25T21:12:40.518Z,15.13
2018-07-25T21:15:09.131Z,16.17
2018-07-25T21:17:38.807Z,10.70
2018-07-25T21:20:07.972Z,17.90
2018-07-25T21:22:37.097Z,10.10
2018-07-25T21:25:06.318Z,10.47
2018-07-25T21:27:35.054Z,12.90
2018-07-25T21:30:03.977Z,8.97
2018-07-25T21:32:33.325Z,15.17
2018-07-25T21:35:02.442Z,12.00
2018-07-25T21:37:31.410Z,14.47
2018-07-25T21:40:00.125Z,13.60
2018-07-25T21:42:28.929Z,25.93
2018-07-25T21:44:57.663Z,14.80
2018-07-25T21:47:26.817Z,13.70
2018-07-25T21:49:55.707Z,16.57
2018-07-25T21:52:24.400Z,13.13
2018-07-25T21:54:53.190Z,15.50
2018-07-25T21:57:22.087Z,12.03
2018-07-25T21:59:50.818Z,11.53
2018-07-25T22:02:20.384Z,11.40
2018-07-25T22:04:49.120Z,13.57
2018-07-25T22:07:17.745Z,8.07
2018-07-25T22:09:46.788Z,12.60
2018-07-25T22:12:15.412Z,12.03
2018-07-25T22:14:44.029Z,11.13
2018-07-25T22:17:13.279Z,12.07
2018-07-25T22:19:41.914Z,26.37
2018-07-25T22:22:10.613Z,18.10
2018-07-25T22:24:39.275Z,17.70
2018-07-25T22:27:08.396Z,21.07
2018-07-25T22:29:37.061Z,25.13
2018-07-25T22:32:05.996Z,7.97
2018-07-25T22:34:34.643Z,13.10
2018-07-25T22:37:03.248Z,8.10
2018-07-25T22:39:32.475Z,9.50
2018-07-25T22:42:01.119Z,11.37
2018-07-25T22:44:30.900Z,20.33
2018-07-25T22:46:59.527Z,11.53
2018-07-25T22:49:28.197Z,11.50
2018-07-25T22:51:57.040Z,24.17
2018-07-25T22:54:26.072Z,12.10
2018-07-25T22:56:54.664Z,13.97
2018-07-25T22:59:23.344Z,12.53
2018-07-25T23:01:53.028Z,21.90
2018-07-25T23:04:21.750Z,11.40
2018-07-25T23:06:50.425Z,14.93
2018-07-25T23:09:19.568Z,9.90
2018-07-25T23:11:48.268Z,9.27
2018-07-25T23:14:17.062Z,17.93
2018-07-25T23:16:45.932Z,12.60
2018-07-25T23:19:14.796Z,10.00
2018-07-25T23:21:43.707Z,10.70
2018-07-25T23:24:12.504Z,11.10
2018-07-25T23:26:41.272Z,22.53
2018-07-25T23:29:10.096Z,8.50
2018-07-25T23:31:39.307Z,14.57
2018-07-25T23:34:08.243Z,14.63
2018-07-25T23:36:37.136Z,12.63
2018-07-25T23:39:09.628Z,11.77
2018-07-25T23:41:38.529Z,13.93
2018-07-25T23:44:07.389Z,10.20
2018-07-25T23:46:36.507Z,18.40
2018-07-25T23:49:05.371Z,13.80
2018-07-25T23:51:34.766Z,16.43
2018-07-25T23:54:04.720Z,16.73
2018-07-25T23:56:33.424Z,13.70
2018-07-25T23:59:02.053Z,12.60
